createdAt,value
2022-11-24T00:00:55.575Z,2.72
2022-11-24T00:03:22.845Z,2.58
2022-11-24T00:05:50.049Z,2.38
2022-11-24T00:08:18.308Z,2.40
2022-11-24T00:10:45.478Z,3.03
2022-11-24T00:13:12.730Z,2.42
2022-11-24T00:15:39.822Z,2.20
2022-11-24T00:18:06.921Z,2.75
2022-11-24T00:20:34.170Z,2.83
2022-11-24T00:23:01.542Z,2.55
2022-11-24T00:25:28.650Z,2.70
2022-11-24T00:27:55.753Z,2.10
2022-11-24T00:30:22.951Z,1.90
2022-11-24T00:32:50.151Z,2.35
2022-11-24T00:35:17.311Z,2.10
2022-11-24T00:37:44.513Z,2.50
2022-11-24T00:40:11.780Z,2.00
2022-11-24T00:42:38.947Z,2.00
2022-11-24T00:45:13.531Z,2.10
2022-11-24T00:47:41.476Z,2.53
2022-11-24T00:50:08.884Z,2.33
2022-11-24T00:52:36.039Z,1.90
2022-11-24T00:55:03.232Z,2.58
2022-11-24T00:57:30.430Z,2.38
2022-11-24T00:59:57.614Z,2.75
2022-11-24T01:02:24.840Z,2.70
2022-11-24T01:04:52.046Z,2.35
2022-11-24T01:07:19.262Z,2.65
2022-11-24T01:09:46.411Z,2.90
2022-11-24T01:12:13.633Z,2.88
2022-11-24T01:14:40.842Z,2.28
2022-11-24T01:17:08.009Z,2.33
2022-11-24T01:19:35.245Z,2.40
2022-11-24T01:22:02.475Z,3.47
2022-11-24T01:24:29.592Z,2.78
2022-11-24T01:26:56.739Z,2.45
2022-11-24T01:29:24.018Z,2.65
2022-11-24T01:31:51.105Z,2.92
2022-11-24T01:34:18.191Z,2.45
2022-11-24T01:36:45.378Z,2.13
2022-11-24T01:39:13.329Z,2.63
2022-11-24T01:41:40.755Z,2.40
2022-11-24T01:44:34.596Z,2.10
2022-11-24T01:47:22.173Z,2.45
2022-11-24T01:49:55.033Z,2.35
2022-11-24T01:52:22.134Z,2.22
2022-11-24T01:54:50.713Z,1.70
2022-11-24T01:57:17.790Z,1.98
2022-11-24T01:59:47.190Z,1.92
2022-11-24T02:02:16.259Z,2.22
2022-11-24T02:04:44.294Z,2.03
2022-11-24T02:07:12.239Z,1.95
2022-11-24T02:09:45.527Z,2.10
2022-11-24T02:14:40.271Z,2.30
2022-11-24T02:17:08.450Z,1.77
2022-11-24T02:19:35.622Z,2.28
2022-11-24T02:22:03.602Z,1.85
2022-11-24T02:24:39.773Z,2.03
2022-11-24T02:27:06.981Z,2.00
2022-11-24T02:29:34.309Z,1.70
2022-11-24T02:32:04.105Z,1.83
2022-11-24T02:34:31.436Z,2.42
2022-11-24T02:36:58.728Z,2.10
2022-11-24T02:39:26.115Z,1.30
2022-11-24T02:41:55.240Z,1.88
2022-11-24T02:44:24.812Z,1.88
2022-11-24T02:47:02.047Z,2.00
2022-11-24T02:49:29.402Z,1.60
2022-11-24T02:51:56.985Z,2.13
2022-11-24T02:54:24.104Z,2.00
2022-11-24T02:56:51.243Z,1.70
2022-11-24T02:59:18.358Z,2.28
2022-11-24T03:01:45.577Z,1.40
2022-11-24T03:04:12.903Z,1.67
2022-11-24T03:06:40.145Z,1.73
2022-11-24T03:09:07.384Z,1.90
2022-11-24T03:11:34.530Z,1.65
2022-11-24T03:14:01.643Z,1.55
2022-11-24T03:16:28.731Z,1.80
2022-11-24T03:18:55.989Z,1.73
2022-11-24T03:21:23.125Z,2.08
2022-11-24T03:23:50.399Z,1.92
2022-11-24T03:26:18.731Z,1.63
2022-11-24T03:28:46.250Z,2.10
2022-11-24T03:31:13.557Z,1.42
2022-11-24T03:33:40.801Z,2.00
2022-11-24T03:36:08.538Z,1.35
2022-11-24T03:38:36.125Z,1.80
2022-11-24T03:41:03.384Z,1.40
2022-11-24T03:43:30.621Z,1.83
2022-11-24T03:45:57.837Z,1.98
2022-11-24T03:48:25.114Z,1.67
2022-11-24T03:50:56.287Z,1.70
2022-11-24T03:53:24.638Z,1.33
2022-11-24T03:55:51.850Z,1.90
2022-11-24T03:58:19.456Z,1.80
2022-11-24T04:00:48.709Z,1.60
2022-11-24T04:03:15.869Z,2.10
2022-11-24T04:05:42.955Z,1.88
2022-11-24T04:08:10.078Z,1.73
2022-11-24T04:10:38.812Z,1.75
2022-11-24T04:13:11.327Z,2.40
2022-11-24T04:15:40.346Z,2.13
2022-11-24T04:18:08.032Z,1.63
2022-11-24T04:20:35.308Z,2.00
2022-11-24T04:23:02.734Z,1.77
2022-11-24T04:25:30.405Z,1.67
2022-11-24T04:27:58.010Z,1.80
2022-11-24T04:30:26.480Z,1.95
2022-11-24T04:32:53.604Z,1.70
2022-11-24T04:35:21.310Z,2.15
2022-11-24T04:37:48.473Z,2.13
2022-11-24T04:40:15.813Z,2.47
2022-11-24T04:42:42.965Z,1.80
2022-11-24T04:45:11.257Z,2.13
2022-11-24T04:47:38.863Z,1.60
2022-11-24T04:50:07.646Z,1.95
2022-11-24T04:52:34.738Z,2.08
2022-11-24T04:55:02.029Z,1.83
2022-11-24T04:57:29.061Z,2.17
2022-11-24T04:59:56.319Z,2.10
2022-11-24T05:02:23.725Z,2.13
2022-11-24T05:04:51.330Z,2.33
2022-11-24T05:07:19.620Z,2.42
2022-11-24T05:10:06.087Z,2.67
2022-11-24T05:12:33.542Z,1.63
2022-11-24T05:15:01.535Z,2.17
2022-11-24T05:17:32.867Z,1.95
2022-11-24T05:20:00.161Z,1.65
2022-11-24T05:22:28.955Z,1.52
2022-11-24T05:24:56.143Z,1.90
2022-11-24T05:27:23.295Z,1.70
2022-11-24T05:29:50.687Z,1.40
2022-11-24T05:32:17.830Z,1.38
2022-11-24T05:34:45.192Z,1.00
2022-11-24T05:37:12.236Z,1.02
2022-11-24T05:39:39.388Z,0.90
2022-11-24T05:42:26.173Z,1.27
2022-11-24T05:44:53.892Z,1.00
2022-11-24T05:47:21.508Z,0.52
2022-11-24T05:49:48.648Z,0.85
2022-11-24T05:52:16.543Z,0.47
2022-11-24T05:54:43.888Z,0.70
2022-11-24T05:57:11.022Z,0.70
2022-11-24T05:59:38.143Z,0.70
2022-11-24T06:02:05.340Z,0.57
2022-11-24T06:04:33.109Z,0.50
2022-11-24T06:07:00.363Z,0.43
2022-11-24T06:09:27.492Z,0.90
2022-11-24T06:11:54.574Z,0.45
2022-11-24T06:14:21.631Z,0.88
2022-11-24T06:16:48.753Z,0.70
2022-11-24T06:19:15.973Z,0.95
2022-11-24T06:21:43.098Z,1.00
2022-11-24T06:24:10.237Z,0.88
2022-11-24T06:26:37.298Z,1.02
2022-11-24T06:29:04.491Z,1.02
2022-11-24T06:31:31.670Z,1.10
2022-11-24T06:33:59.529Z,1.10
2022-11-24T06:36:27.020Z,1.00
2022-11-24T06:38:54.789Z,1.58
2022-11-24T06:41:22.004Z,1.20
2022-11-24T06:43:49.220Z,1.10
2022-11-24T06:46:16.321Z,1.10
2022-11-24T06:48:43.565Z,1.35
2022-11-24T06:51:12.741Z,1.50
2022-11-24T06:53:40.730Z,1.70
2022-11-24T06:56:16.100Z,1.75
2022-11-24T06:58:45.322Z,1.73
2022-11-24T07:01:19.986Z,1.60
2022-11-24T07:03:50.707Z,1.80
2022-11-24T07:06:18.377Z,1.90
2022-11-24T07:08:46.002Z,2.08
2022-11-24T07:11:15.596Z,1.98
2022-11-24T07:13:43.331Z,2.28
2022-11-24T07:16:11.660Z,2.42
2022-11-24T07:18:38.757Z,2.97
2022-11-24T07:21:05.959Z,3.10
2022-11-24T07:23:33.171Z,2.75
2022-11-24T07:26:06.577Z,2.75
2022-11-24T07:28:34.182Z,3.10
2022-11-24T07:31:05.629Z,3.88
2022-11-24T07:33:32.757Z,3.40
2022-11-24T07:36:00.399Z,3.33
2022-11-24T07:38:27.589Z,4.10
2022-11-24T07:40:54.668Z,3.33
2022-11-24T07:43:21.805Z,4.57
2022-11-24T07:45:53.108Z,3.88
2022-11-24T07:48:20.237Z,4.43
2022-11-24T07:50:52.497Z,4.38
2022-11-24T07:53:22.699Z,4.07
2022-11-24T07:55:54.905Z,4.30
2022-11-24T07:58:22.309Z,4.25
2022-11-24T08:00:49.736Z,4.22
2022-11-24T08:03:16.914Z,3.75
2022-11-24T08:06:01.010Z,3.83
2022-11-24T08:08:34.446Z,3.65
2022-11-24T08:11:05.688Z,4.13
2022-11-24T08:13:32.727Z,3.30
2022-11-24T08:15:59.775Z,3.83
2022-11-24T08:18:27.889Z,3.92
2022-11-24T08:20:54.970Z,3.50
2022-11-24T08:23:22.135Z,3.67
2022-11-24T08:25:52.924Z,3.20
2022-11-24T08:28:24.215Z,2.90
2022-11-24T08:30:51.286Z,3.25
2022-11-24T08:33:18.428Z,4.22
2022-11-24T08:35:45.472Z,3.55
2022-11-24T08:38:12.724Z,3.67
2022-11-24T08:40:39.917Z,3.60
2022-11-24T08:43:07.112Z,3.47
2022-11-24T08:45:39.730Z,3.40
2022-11-24T08:48:08.312Z,3.78
2022-11-24T08:50:35.686Z,2.92
2022-11-24T08:53:02.884Z,3.60
2022-11-24T08:55:30.012Z,3.83
2022-11-24T08:57:57.505Z,3.42
2022-11-24T09:00:24.719Z,3.85
2022-11-24T09:02:59.164Z,3.58
2022-11-24T09:05:51.266Z,3.58
2022-11-24T09:08:13.495Z,3.00
2022-11-24T09:10:40.642Z,3.30
2022-11-24T09:13:07.707Z,3.35
2022-11-24T09:15:35.970Z,3.05
2022-11-24T09:18:03.098Z,2.75
2022-11-24T09:20:30.404Z,2.92
2022-11-24T09:22:57.578Z,3.17
2022-11-24T09:25:24.713Z,3.08
2022-11-24T09:27:52.415Z,2.90
2022-11-24T09:30:20.401Z,2.80
2022-11-24T09:32:47.516Z,2.28
2022-11-24T09:35:14.685Z,2.30
2022-11-24T09:37:44.732Z,2.33
2022-11-24T09:40:16.651Z,2.80
2022-11-24T09:42:53.568Z,2.55
2022-11-24T09:46:03.347Z,2.72
2022-11-24T09:48:26.789Z,3.08
2022-11-24T09:50:54.310Z,1.70
2022-11-24T09:53:38.773Z,2.30
2022-11-24T09:56:15.887Z,2.58
2022-11-24T09:58:46.059Z,2.55
2022-11-24T10:01:18.508Z,2.08
2022-11-24T10:03:47.932Z,2.30
2022-11-24T10:06:23.512Z,2.15
2022-11-24T10:09:09.647Z,1.95
2022-11-24T10:11:49.960Z,1.60
2022-11-24T10:14:27.448Z,1.80
2022-11-24T10:17:14.883Z,2.33
2022-11-24T10:20:03.772Z,2.10
2022-11-24T10:22:43.767Z,1.45
2022-11-24T10:25:21.703Z,1.70
2022-11-24T10:27:50.956Z,2.08
2022-11-24T10:30:20.393Z,1.90
2022-11-24T10:32:49.055Z,2.20
2022-11-24T10:35:18.193Z,1.70
2022-11-24T10:38:13.748Z,2.08
2022-11-24T10:41:00.295Z,2.70
2022-11-24T10:43:28.440Z,1.80
2022-11-24T10:45:59.598Z,1.60
2022-11-24T10:48:29.362Z,1.60
2022-11-24T10:51:01.903Z,2.28
2022-11-24T10:53:32.363Z,2.05
2022-11-24T10:56:01.098Z,1.80
2022-11-24T10:58:37.933Z,2.28
2022-11-24T11:01:14.760Z,1.80
2022-11-24T11:03:48.303Z,1.92
2022-11-24T11:06:21.523Z,2.40
2022-11-24T11:11:30.981Z,2.72
2022-11-24T11:14:04.525Z,2.15
2022-11-24T11:16:35.219Z,2.13
2022-11-24T11:19:15.781Z,1.83
2022-11-24T11:21:59.397Z,2.10
2022-11-24T11:24:27.949Z,2.10
2022-11-24T11:27:02.659Z,2.35
2022-11-24T11:35:14.858Z,1.80
2022-11-24T11:37:42.129Z,2.15
2022-11-24T11:40:13.919Z,1.98
2022-11-24T11:43:08.090Z,2.20
2022-11-24T11:45:40.704Z,1.90
2022-11-24T11:48:21.559Z,2.08
2022-11-24T11:53:45.246Z,2.63
2022-11-24T11:56:15.350Z,2.33
2022-11-24T11:58:57.320Z,1.90
2022-11-24T12:01:39.090Z,2.50
2022-11-24T12:04:15.674Z,2.13
2022-11-24T12:07:14.788Z,2.65
2022-11-24T12:09:54.104Z,2.60
2022-11-24T12:12:30.514Z,2.42
2022-11-24T12:15:20.420Z,2.55
2022-11-24T12:17:57.459Z,2.38
2022-11-24T12:20:33.780Z,2.65
2022-11-24T12:23:03.950Z,2.05
2022-11-24T12:25:34.569Z,2.35
2022-11-24T12:28:30.105Z,2.63
2022-11-24T12:31:07.701Z,2.28
2022-11-24T12:33:57.887Z,2.67
2022-11-24T12:36:37.156Z,2.15
2022-11-24T12:39:17.518Z,2.30
2022-11-24T12:42:03.397Z,2.00
2022-11-24T12:44:49.057Z,2.10
2022-11-24T12:47:22.592Z,2.60
2022-11-24T12:50:01.887Z,2.00
2022-11-24T12:52:34.384Z,2.50
2022-11-24T12:55:02.302Z,2.38
2022-11-24T12:57:40.439Z,2.55
2022-11-24T13:00:08.925Z,2.28
2022-11-24T13:02:57.604Z,2.17
2022-11-24T13:05:38.275Z,2.70
2022-11-24T13:08:06.088Z,2.10
2022-11-24T13:13:20.325Z,1.77
2022-11-24T13:18:47.903Z,2.00
2022-11-24T13:21:27.309Z,2.20
2022-11-24T13:23:58.154Z,2.15
2022-11-24T13:26:30.103Z,2.38
2022-11-24T13:29:23.708Z,1.85
2022-11-24T13:31:52.265Z,1.90
2022-11-24T13:34:55.118Z,2.00
2022-11-24T13:37:29.044Z,2.50
2022-11-24T13:40:17.078Z,2.33
2022-11-24T13:42:57.322Z,1.90
2022-11-24T13:45:40.036Z,1.90
2022-11-24T13:48:19.768Z,1.80
2022-11-24T13:50:50.378Z,1.75
2022-11-24T13:53:20.518Z,2.35
2022-11-24T13:56:13.718Z,2.50
2022-11-24T13:58:44.120Z,2.05
2022-11-24T14:01:14.469Z,1.70
2022-11-24T14:03:51.020Z,2.22
2022-11-24T14:06:40.162Z,1.83
2022-11-24T14:09:24.821Z,2.00
2022-11-24T14:12:00.267Z,1.70
2022-11-24T14:14:27.377Z,2.03
2022-11-24T14:17:07.522Z,2.05
2022-11-24T14:19:34.793Z,2.08
2022-11-24T14:22:01.946Z,2.08
2022-11-24T14:24:34.418Z,1.90
2022-11-24T14:27:05.282Z,2.10
2022-11-24T14:29:33.327Z,2.03
2022-11-24T14:32:01.885Z,1.90
2022-11-24T14:34:30.081Z,1.83
2022-11-24T14:36:58.014Z,2.10
2022-11-24T14:39:26.015Z,1.90
2022-11-24T14:41:56.291Z,2.13
2022-11-24T14:44:25.821Z,1.90
2022-11-24T14:47:03.598Z,2.03
2022-11-24T14:49:31.583Z,2.10
2022-11-24T14:52:03.471Z,1.95
2022-11-24T14:54:30.917Z,2.15
2022-11-24T14:56:59.342Z,1.98
2022-11-24T14:59:27.558Z,2.13
2022-11-24T15:01:55.110Z,2.30
2022-11-24T15:04:54.812Z,2.55
2022-11-24T15:07:16.661Z,2.60
2022-11-24T15:09:49.904Z,2.80
2022-11-24T15:12:56.361Z,3.03
2022-11-24T15:15:25.137Z,2.03
2022-11-24T15:17:57.401Z,2.60
2022-11-24T15:20:30.274Z,2.63
2022-11-24T15:23:19.053Z,2.40
2022-11-24T15:25:46.456Z,2.67
2022-11-24T15:28:13.623Z,2.30
2022-11-24T15:30:40.865Z,2.65
2022-11-24T15:33:13.675Z,2.25
2022-11-24T15:35:40.800Z,1.88
2022-11-24T15:38:08.046Z,1.90
2022-11-24T15:40:35.315Z,2.20
2022-11-24T15:43:06.424Z,1.75
2022-11-24T15:45:34.814Z,1.80
2022-11-24T15:48:02.123Z,1.70
2022-11-24T15:50:29.327Z,2.30
2022-11-24T15:52:57.657Z,2.55
2022-11-24T15:55:24.812Z,3.00
2022-11-24T15:57:51.965Z,2.67
2022-11-24T16:00:23.086Z,2.40
2022-11-24T16:02:50.297Z,2.30
2022-11-24T16:05:18.238Z,2.33
2022-11-24T16:07:45.474Z,3.10
2022-11-24T16:10:20.901Z,2.13
2022-11-24T16:12:48.132Z,2.60
2022-11-24T16:15:15.356Z,2.65
2022-11-24T16:17:42.598Z,2.60
2022-11-24T16:20:09.925Z,2.30
2022-11-24T16:22:37.108Z,2.97
2022-11-24T16:25:04.335Z,2.67
2022-11-24T16:27:32.093Z,2.47
2022-11-24T16:29:59.288Z,3.00
2022-11-24T16:32:26.573Z,2.60
2022-11-24T16:34:53.978Z,2.63
2022-11-24T16:37:21.747Z,3.03
2022-11-24T16:39:50.391Z,3.10
2022-11-24T16:42:17.833Z,2.47
2022-11-24T16:44:45.082Z,2.60
2022-11-24T16:47:13.007Z,2.90
2022-11-24T16:49:40.379Z,3.10
2022-11-24T16:52:08.508Z,2.50
2022-11-24T16:54:35.837Z,2.50
2022-11-24T16:57:03.331Z,2.45
2022-11-24T16:59:30.483Z,3.00
2022-11-24T17:01:57.650Z,2.38
2022-11-24T17:04:24.802Z,2.03
2022-11-24T17:06:52.074Z,2.10
2022-11-24T17:09:19.304Z,2.63
2022-11-24T17:11:46.473Z,3.22
2022-11-24T17:14:13.641Z,2.05
2022-11-24T17:16:40.935Z,2.80
2022-11-24T17:19:08.141Z,3.20
2022-11-24T17:21:35.312Z,3.50
2022-11-24T17:24:05.401Z,2.88
2022-11-24T17:26:33.203Z,2.88
2022-11-24T17:29:00.281Z,3.20
2022-11-24T17:31:37.579Z,2.88
2022-11-24T17:34:05.794Z,2.42
2022-11-24T17:36:33.772Z,2.80
2022-11-24T17:39:03.161Z,2.95
2022-11-24T17:41:30.311Z,3.45
2022-11-24T17:43:57.876Z,2.22
2022-11-24T17:46:26.245Z,2.67
2022-11-24T17:48:54.032Z,2.65
2022-11-24T17:51:22.500Z,3.03
2022-11-24T17:53:50.528Z,2.70
2022-11-24T17:56:18.970Z,2.75
2022-11-24T17:58:46.428Z,2.55
2022-11-24T18:01:14.007Z,2.50
2022-11-24T18:03:41.682Z,2.25
2022-11-24T18:06:10.491Z,2.78
2022-11-24T18:08:38.499Z,2.63
2022-11-24T18:11:06.566Z,2.78
2022-11-24T18:13:55.580Z,2.33
2022-11-24T18:16:21.378Z,3.88
2022-11-24T18:18:50.986Z,2.60
2022-11-24T18:21:18.689Z,2.92
2022-11-24T18:23:47.170Z,2.78
2022-11-24T18:26:15.405Z,2.45
2022-11-24T18:28:43.928Z,2.47
2022-11-24T18:31:12.465Z,2.45
2022-11-24T18:33:43.998Z,2.88
2022-11-24T18:36:13.440Z,2.60
2022-11-24T18:38:40.811Z,2.35
2022-11-24T18:41:08.485Z,2.92
2022-11-24T18:43:37.506Z,2.80
2022-11-24T18:46:05.938Z,2.53
2022-11-24T18:48:33.398Z,2.75
2022-11-24T18:51:00.613Z,2.85
2022-11-24T18:53:28.370Z,2.50
2022-11-24T18:55:59.240Z,2.50
2022-11-24T18:58:28.703Z,3.10
2022-11-24T19:00:56.671Z,3.17
2022-11-24T19:03:23.830Z,2.83
2022-11-24T19:05:50.889Z,3.22
2022-11-24T19:08:17.974Z,2.42
2022-11-24T19:10:45.248Z,2.83
2022-11-24T19:13:12.736Z,2.60
2022-11-24T19:15:39.931Z,2.15
2022-11-24T19:18:07.121Z,2.95
2022-11-24T19:20:34.942Z,2.50
2022-11-24T19:23:02.214Z,2.22
2022-11-24T19:25:29.490Z,2.53
2022-11-24T19:27:56.788Z,2.60
2022-11-24T19:30:24.064Z,2.38
2022-11-24T19:32:51.113Z,2.28
2022-11-24T19:35:18.218Z,2.10
2022-11-24T19:37:45.386Z,2.58
2022-11-24T19:40:12.765Z,2.50
2022-11-24T19:42:39.892Z,2.13
2022-11-24T19:45:07.612Z,2.30
2022-11-24T19:47:34.781Z,2.80
2022-11-24T19:50:06.025Z,2.45
2022-11-24T19:52:36.118Z,2.83
2022-11-24T19:55:03.488Z,2.45
2022-11-24T19:57:30.567Z,2.17
2022-11-24T19:59:58.063Z,2.92
2022-11-24T20:02:25.310Z,2.53
2022-11-24T20:04:52.521Z,2.47
2022-11-24T20:07:20.381Z,2.78
2022-11-24T20:09:47.536Z,2.90
2022-11-24T20:12:14.987Z,2.40
2022-11-24T20:14:42.171Z,2.88
2022-11-24T20:17:09.374Z,2.50
2022-11-24T20:19:36.589Z,2.42
2022-11-24T20:22:03.859Z,2.03
2022-11-24T20:24:31.040Z,2.53
2022-11-24T20:27:00.002Z,2.55
2022-11-24T20:29:29.079Z,2.28
2022-11-24T20:31:56.954Z,2.92
2022-11-24T20:34:24.601Z,2.35
2022-11-24T20:36:55.584Z,2.25
2022-11-24T20:39:25.401Z,2.40
2022-11-24T20:41:53.124Z,2.40
2022-11-24T20:44:22.046Z,2.75
2022-11-24T20:46:49.512Z,2.08
2022-11-24T20:49:17.988Z,2.28
2022-11-24T20:51:47.109Z,2.70
2022-11-24T20:54:14.774Z,2.00
2022-11-24T20:56:43.236Z,2.65
2022-11-24T20:59:14.447Z,2.15
2022-11-24T21:01:43.511Z,2.88
2022-11-24T21:04:12.228Z,2.50
2022-11-24T21:06:40.040Z,1.75
2022-11-24T21:09:08.173Z,2.60
2022-11-24T21:11:35.432Z,1.88
2022-11-24T21:14:02.695Z,2.10
2022-11-24T21:16:34.594Z,2.22
2022-11-24T21:19:03.278Z,2.40
2022-11-24T21:21:33.968Z,2.80
2022-11-24T21:24:01.963Z,2.75
2022-11-24T21:26:29.189Z,2.38
2022-11-24T21:28:56.837Z,2.50
2022-11-24T21:31:24.384Z,2.67
2022-11-24T21:33:52.463Z,2.38
2022-11-24T21:36:21.031Z,2.90
2022-11-24T21:38:58.400Z,2.28
2022-11-24T21:41:26.649Z,2.30
2022-11-24T21:43:55.943Z,2.20
2022-11-24T21:46:23.789Z,2.78
2022-11-24T21:48:51.043Z,2.00
2022-11-24T21:51:19.722Z,2.25
2022-11-24T21:53:47.212Z,2.72
2022-11-24T21:56:17.085Z,2.30
2022-11-24T21:58:48.471Z,2.30
2022-11-24T22:01:16.615Z,2.85
2022-11-24T22:03:44.028Z,2.45
2022-11-24T22:06:11.241Z,2.40
2022-11-24T22:08:38.799Z,2.38
2022-11-24T22:11:12.127Z,2.22
2022-11-24T22:13:39.311Z,2.03
2022-11-24T22:16:14.050Z,2.05
2022-11-24T22:18:42.396Z,2.33
2022-11-24T22:21:11.644Z,2.40
2022-11-24T22:23:38.804Z,2.50
2022-11-24T22:26:06.963Z,2.25
2022-11-24T22:28:35.375Z,2.10
2022-11-24T22:31:06.572Z,2.28
2022-11-24T22:33:33.929Z,2.13
2022-11-24T22:36:01.602Z,2.38
2022-11-24T22:38:29.438Z,2.60
2022-11-24T22:41:00.812Z,2.10
2022-11-24T22:43:29.586Z,2.97
2022-11-24T22:45:56.831Z,1.80
2022-11-24T22:48:23.936Z,2.65
2022-11-24T22:50:51.037Z,2.35
2022-11-24T22:53:18.169Z,2.20
2022-11-24T22:55:45.375Z,2.67
2022-11-24T22:58:12.502Z,2.35
2022-11-24T23:00:39.625Z,2.55
2022-11-24T23:03:06.855Z,2.33
2022-11-24T23:05:34.095Z,2.40
2022-11-24T23:08:01.204Z,2.28
2022-11-24T23:10:28.400Z,2.78
2022-11-24T23:12:55.825Z,1.85
2022-11-24T23:15:22.886Z,2.30
2022-11-24T23:17:49.924Z,1.98
2022-11-24T23:20:17.006Z,2.45
2022-11-24T23:22:44.210Z,2.42
2022-11-24T23:25:11.385Z,2.47
2022-11-24T23:27:38.583Z,2.33
2022-11-24T23:30:06.172Z,2.47
2022-11-24T23:32:33.315Z,2.47
2022-11-24T23:35:00.389Z,2.35
2022-11-24T23:37:52.090Z,2.22
2022-11-24T23:40:14.615Z,2.60
2022-11-24T23:42:41.757Z,2.30
2022-11-24T23:45:11.037Z,2.53
2022-11-24T23:47:38.181Z,2.50
2022-11-24T23:50:08.453Z,2.28
2022-11-24T23:52:36.055Z,2.38
2022-11-24T23:55:03.176Z,2.38
2022-11-24T23:57:30.269Z,2.28
2022-11-24T23:59:57.454Z,2.40
